Terminal Aerodrome Forecast
Issued by NWS Lake Charles, LA

Home | Current Version | Previous Version | Text Only | Print | Product List | Glossary On
Versions: 1 2 3 4 5 6 7 8 9 10 11 12 13 14 15 16 17 18 19 20 21
000
FTUS44 KLCH 180520
TAFBPT
TAF
KBPT 180520Z 1806/1906 10010KT 6SM -RA VCTS SCT015CB OVC090
      TEMPO 1806/1810 2SM -TSRA OVC015CB
     FM181000 15010KT P6SM -RA VCTS OVC015CB
     FM181500 19010KT P6SM VCTS OVC025CB=

USA.gov is the U.S. government's official web portal to all federal, state and local government web resources and services.